createdAt,value
2023-03-29T00:00:50.957Z,93272.00
2023-03-29T00:01:50.958Z,93268.00
2023-03-29T00:02:51.024Z,93266.00
2023-03-29T00:03:51.064Z,93270.00
2023-03-29T00:04:51.730Z,93276.00
2023-03-29T00:05:51.033Z,93286.00
2023-03-29T00:06:50.989Z,93292.00
2023-03-29T00:07:50.996Z,93292.00
2023-03-29T00:08:51.014Z,93288.00
2023-03-29T00:09:51.052Z,93290.00
2023-03-29T00:10:51.005Z,93288.00
2023-03-29T00:11:51.019Z,93288.00
2023-03-29T00:12:51.016Z,93288.00
2023-03-29T00:13:51.024Z,93292.00
2023-03-29T00:14:51.047Z,93296.00
2023-03-29T00:15:51.038Z,93306.00
2023-03-29T00:16:51.169Z,93308.00
2023-03-29T00:17:51.088Z,93304.00
2023-03-29T00:18:51.135Z,93302.00
2023-03-29T00:19:51.072Z,93298.00
2023-03-29T00:20:51.078Z,93292.00
2023-03-29T00:21:51.096Z,93288.00
2023-03-29T00:22:51.092Z,93290.00
2023-03-29T00:23:51.153Z,93288.00
2023-03-29T00:24:51.113Z,93286.00
2023-03-29T00:25:51.157Z,93284.00
2023-03-29T00:26:51.158Z,93284.00
2023-03-29T00:27:51.173Z,93288.00
2023-03-29T00:28:51.166Z,93288.00
2023-03-29T00:29:51.162Z,93290.00
2023-03-29T00:30:51.166Z,93292.00
2023-03-29T00:31:51.341Z,93292.00
2023-03-29T00:32:51.393Z,93298.00
2023-03-29T00:33:51.201Z,93306.00
2023-03-29T00:34:51.223Z,93306.00
2023-03-29T00:35:51.267Z,93306.00
2023-03-29T00:36:51.240Z,93312.00
2023-03-29T00:37:51.240Z,93316.00
2023-03-29T00:38:51.249Z,93317.00
2023-03-29T00:39:51.263Z,93319.00
2023-03-29T00:40:51.287Z,93317.00
2023-03-29T00:41:51.311Z,93319.00
2023-03-29T00:42:51.292Z,93323.00
2023-03-29T00:43:51.320Z,93325.00
2023-03-29T00:44:51.315Z,93323.00
2023-03-29T00:45:51.402Z,93327.00
2023-03-29T00:46:51.504Z,93325.00
2023-03-29T00:47:51.452Z,93329.00
2023-03-29T00:48:51.371Z,93335.00
2023-03-29T00:49:51.426Z,93337.00
2023-03-29T00:50:51.397Z,93339.00
2023-03-29T00:51:51.410Z,93337.00
2023-03-29T00:52:51.418Z,93341.00
2023-03-29T00:53:51.424Z,93345.00
2023-03-29T00:54:51.560Z,93343.00
2023-03-29T00:55:51.457Z,93345.00
2023-03-29T00:56:51.539Z,93343.00
2023-03-29T00:57:52.298Z,93343.00
2023-03-29T00:58:51.488Z,93341.00
2023-03-29T00:59:51.505Z,93345.00
2023-03-29T01:00:51.498Z,93356.00
2023-03-29T01:01:51.583Z,93347.00
2023-03-29T01:02:51.654Z,93347.00
2023-03-29T01:03:51.596Z,93354.00
2023-03-29T01:04:51.556Z,93345.00
2023-03-29T01:05:51.548Z,93339.00
2023-03-29T01:06:51.587Z,93337.00
2023-03-29T01:07:51.575Z,93335.00
2023-03-29T01:08:51.589Z,93333.00
2023-03-29T01:09:51.590Z,93337.00
2023-03-29T01:10:51.612Z,93335.00
2023-03-29T01:11:51.626Z,93333.00
2023-03-29T01:12:51.628Z,93331.00
2023-03-29T01:13:51.661Z,93331.00
2023-03-29T01:14:51.647Z,93337.00
2023-03-29T01:15:51.671Z,93341.00
2023-03-29T01:16:52.418Z,93337.00
2023-03-29T01:17:51.712Z,93339.00
2023-03-29T01:18:51.702Z,93335.00
2023-03-29T01:19:52.264Z,93335.00
2023-03-29T01:20:51.718Z,93335.00
2023-03-29T01:21:51.758Z,93339.00
2023-03-29T01:22:52.267Z,93339.00
2023-03-29T01:23:51.766Z,93341.00
2023-03-29T01:24:51.780Z,93341.00
2023-03-29T01:25:51.792Z,93337.00
2023-03-29T01:26:51.818Z,93337.00
2023-03-29T01:27:51.881Z,93335.00
2023-03-29T01:28:51.823Z,93335.00
2023-03-29T01:29:51.841Z,93337.00
2023-03-29T01:30:51.849Z,93337.00
2023-03-29T01:31:51.906Z,93339.00
2023-03-29T01:32:51.931Z,93339.00
2023-03-29T01:33:51.893Z,93337.00
2023-03-29T01:34:51.891Z,93343.00
2023-03-29T01:35:51.935Z,93343.00
2023-03-29T01:36:51.918Z,93347.00
2023-03-29T01:37:51.934Z,93354.00
2023-03-29T01:38:51.950Z,93358.00
2023-03-29T01:39:51.969Z,93356.00
2023-03-29T01:40:51.975Z,93358.00
2023-03-29T01:41:51.990Z,93358.00
2023-03-29T01:42:52.006Z,93360.00
2023-03-29T01:43:52.027Z,93356.00
2023-03-29T01:44:52.029Z,93354.00
2023-03-29T01:45:52.070Z,93356.00
2023-03-29T01:46:52.059Z,93356.00
2023-03-29T01:47:52.161Z,93358.00
2023-03-29T01:48:52.103Z,93347.00
2023-03-29T01:49:52.099Z,93345.00
2023-03-29T01:50:52.109Z,93345.00
2023-03-29T01:51:52.778Z,93347.00
2023-03-29T01:52:52.145Z,93345.00
2023-03-29T01:53:52.784Z,93339.00
2023-03-29T01:54:52.167Z,93333.00
2023-03-29T01:55:52.188Z,93327.00
2023-03-29T01:56:52.346Z,93331.00
2023-03-29T01:57:52.229Z,93335.00
2023-03-29T01:58:52.244Z,93337.00
2023-03-29T01:59:52.259Z,93341.00
2023-03-29T02:00:52.288Z,93343.00
2023-03-29T02:01:52.435Z,93343.00
2023-03-29T02:02:52.412Z,93341.00
2023-03-29T02:03:52.372Z,93339.00
2023-03-29T02:04:52.357Z,93333.00
2023-03-29T02:05:52.379Z,93327.00
2023-03-29T02:06:53.349Z,93319.00
2023-03-29T02:07:52.415Z,93312.00
2023-03-29T02:08:52.458Z,93310.00
2023-03-29T02:09:52.494Z,93306.00
2023-03-29T02:10:52.469Z,93310.00
2023-03-29T02:11:52.576Z,93308.00
2023-03-29T02:12:52.527Z,93316.00
2023-03-29T02:13:52.604Z,93321.00
2023-03-29T02:14:52.555Z,93323.00
2023-03-29T02:15:52.622Z,93319.00
2023-03-29T02:16:52.602Z,93316.00
2023-03-29T02:17:52.726Z,93314.00
2023-03-29T02:18:52.625Z,93319.00
2023-03-29T02:19:52.647Z,93317.00
2023-03-29T02:20:52.650Z,93314.00
2023-03-29T02:21:52.673Z,93316.00
2023-03-29T02:22:52.693Z,93316.00
2023-03-29T02:23:52.705Z,93314.00
2023-03-29T02:24:52.719Z,93316.00
2023-03-29T02:25:52.733Z,93312.00
2023-03-29T02:26:53.293Z,93310.00
2023-03-29T02:27:52.778Z,93306.00
2023-03-29T02:28:52.794Z,93304.00
2023-03-29T02:29:53.789Z,93302.00
2023-03-29T02:30:52.848Z,93298.00
2023-03-29T02:31:52.852Z,93296.00
2023-03-29T02:32:52.871Z,93296.00
2023-03-29T02:33:52.882Z,93302.00
2023-03-29T02:34:52.893Z,93300.00
2023-03-29T02:35:52.950Z,93296.00
2023-03-29T02:36:52.944Z,93292.00
2023-03-29T02:37:53.785Z,93294.00
2023-03-29T02:38:52.981Z,93292.00
2023-03-29T02:39:52.992Z,93292.00
2023-03-29T02:40:53.005Z,93298.00
2023-03-29T02:41:53.016Z,93304.00
2023-03-29T02:42:53.035Z,93298.00
2023-03-29T02:43:53.046Z,93298.00
2023-03-29T02:44:53.061Z,93292.00
2023-03-29T02:45:53.065Z,93296.00
2023-03-29T02:46:53.126Z,93292.00
2023-03-29T02:47:53.191Z,93294.00
2023-03-29T02:48:53.135Z,93294.00
2023-03-29T02:49:53.210Z,93300.00
2023-03-29T02:50:53.176Z,93306.00
2023-03-29T02:51:53.192Z,93308.00
2023-03-29T02:52:53.209Z,93312.00
2023-03-29T02:53:53.243Z,93319.00
2023-03-29T02:54:53.245Z,93319.00
2023-03-29T02:55:53.272Z,93317.00
2023-03-29T02:56:53.353Z,93321.00
2023-03-29T02:57:53.310Z,93312.00
2023-03-29T02:58:53.347Z,93312.00
2023-03-29T02:59:53.341Z,93308.00
2023-03-29T03:00:53.370Z,93294.00
2023-03-29T03:01:53.449Z,93294.00
2023-03-29T03:02:53.471Z,93296.00
2023-03-29T03:03:53.578Z,93296.00
2023-03-29T03:04:53.457Z,93294.00
2023-03-29T03:05:53.481Z,93290.00
2023-03-29T03:06:53.519Z,93288.00
2023-03-29T03:07:53.534Z,93288.00
2023-03-29T03:08:53.564Z,93290.00
2023-03-29T03:09:53.596Z,93302.00
2023-03-29T03:10:53.602Z,93308.00
2023-03-29T03:11:53.627Z,93312.00
2023-03-29T03:12:53.659Z,93312.00
2023-03-29T03:13:53.673Z,93300.00
2023-03-29T03:14:54.298Z,93300.00
2023-03-29T03:15:53.738Z,93304.00
2023-03-29T03:16:53.733Z,93304.00
2023-03-29T03:17:53.838Z,93306.00
2023-03-29T03:18:53.780Z,93306.00
2023-03-29T03:19:53.793Z,93302.00
2023-03-29T03:20:53.802Z,93304.00
2023-03-29T03:21:53.832Z,93298.00
2023-03-29T03:22:53.853Z,93294.00
2023-03-29T03:23:53.859Z,93288.00
2023-03-29T03:24:53.869Z,93288.00
2023-03-29T03:25:53.896Z,93290.00
2023-03-29T03:26:53.927Z,93292.00
2023-03-29T03:27:53.931Z,93298.00
2023-03-29T03:28:53.963Z,93304.00
2023-03-29T03:29:53.977Z,93296.00
2023-03-29T03:30:53.992Z,93288.00
2023-03-29T03:31:54.429Z,93284.00
2023-03-29T03:32:54.042Z,93278.00
2023-03-29T03:33:54.056Z,93274.00
2023-03-29T03:34:54.076Z,93270.00
2023-03-29T03:35:54.122Z,93270.00
2023-03-29T03:36:54.105Z,93272.00
2023-03-29T03:37:54.138Z,93274.00
2023-03-29T03:38:54.156Z,93280.00
2023-03-29T03:39:54.176Z,93282.00
2023-03-29T03:40:54.217Z,93274.00
2023-03-29T03:41:54.227Z,93274.00
2023-03-29T03:42:54.239Z,93264.00
2023-03-29T03:43:54.271Z,93253.00
2023-03-29T03:44:54.291Z,93262.00
2023-03-29T03:45:54.332Z,93272.00
2023-03-29T03:46:54.316Z,93274.00
2023-03-29T03:47:54.366Z,93280.00
2023-03-29T03:48:54.361Z,93282.00
2023-03-29T03:49:54.380Z,93270.00
2023-03-29T03:50:54.414Z,93270.00
2023-03-29T03:51:54.440Z,93266.00
2023-03-29T03:52:54.479Z,93264.00
2023-03-29T03:53:54.507Z,93255.00
2023-03-29T03:54:54.531Z,93257.00
2023-03-29T03:55:55.309Z,93261.00
2023-03-29T03:56:54.631Z,93262.00
2023-03-29T03:57:54.634Z,93257.00
2023-03-29T03:58:54.656Z,93253.00
2023-03-29T03:59:54.689Z,93249.00
2023-03-29T04:00:54.713Z,93241.00
2023-03-29T04:01:54.805Z,93249.00
2023-03-29T04:02:54.806Z,93253.00
2023-03-29T04:03:54.867Z,93264.00
2023-03-29T04:04:54.815Z,93272.00
2023-03-29T04:05:54.855Z,93280.00
2023-03-29T04:06:54.878Z,93282.00
2023-03-29T04:07:54.908Z,93280.00
2023-03-29T04:08:54.950Z,93274.00
2023-03-29T04:09:54.960Z,93274.00
2023-03-29T04:10:55.004Z,93268.00
2023-03-29T04:11:55.034Z,93270.00
2023-03-29T04:12:55.067Z,93266.00
2023-03-29T04:13:55.096Z,93266.00
2023-03-29T04:14:55.131Z,93266.00
2023-03-29T04:15:55.236Z,93262.00
2023-03-29T04:16:55.196Z,93262.00
2023-03-29T04:17:55.315Z,93262.00
2023-03-29T04:18:55.258Z,93259.00
2023-03-29T04:19:55.274Z,93262.00
2023-03-29T04:20:55.314Z,93262.00
2023-03-29T04:21:55.340Z,93266.00
2023-03-29T04:22:55.821Z,93264.00
2023-03-29T04:23:55.469Z,93264.00
2023-03-29T04:24:55.416Z,93262.00
2023-03-29T04:25:55.435Z,93255.00
2023-03-29T04:26:55.462Z,93259.00
2023-03-29T04:27:55.491Z,93255.00
2023-03-29T04:28:55.524Z,93247.00
2023-03-29T04:29:55.551Z,93243.00
2023-03-29T04:30:55.595Z,93241.00
2023-03-29T04:31:55.597Z,93241.00
2023-03-29T04:32:56.442Z,93247.00
2023-03-29T04:33:56.749Z,93241.00
2023-03-29T04:34:55.665Z,93239.00
2023-03-29T04:35:55.697Z,93235.00
2023-03-29T04:36:55.709Z,93229.00
2023-03-29T04:37:55.707Z,93229.00
2023-03-29T04:38:56.333Z,93227.00
2023-03-29T04:39:55.718Z,93229.00
2023-03-29T04:40:55.723Z,93235.00
2023-03-29T04:41:55.766Z,93247.00
2023-03-29T04:42:55.761Z,93247.00
2023-03-29T04:43:55.774Z,93253.00
2023-03-29T04:44:55.809Z,93249.00
2023-03-29T04:45:55.890Z,93247.00
2023-03-29T04:46:55.795Z,93243.00
2023-03-29T04:47:55.822Z,93241.00
2023-03-29T04:48:55.821Z,93243.00
2023-03-29T04:49:55.832Z,93249.00
2023-03-29T04:50:55.850Z,93251.00
2023-03-29T04:51:55.863Z,93255.00
2023-03-29T04:52:55.878Z,93255.00
2023-03-29T04:53:55.883Z,93253.00
2023-03-29T04:54:55.903Z,93259.00
2023-03-29T04:55:55.916Z,93261.00
2023-03-29T04:56:56.026Z,93257.00
2023-03-29T04:57:55.935Z,93253.00
2023-03-29T04:58:55.945Z,93249.00
2023-03-29T04:59:55.959Z,93247.00
2023-03-29T05:00:55.973Z,93245.00
2023-03-29T05:01:56.001Z,93249.00
2023-03-29T05:02:56.081Z,93245.00
2023-03-29T05:03:56.122Z,93245.00
2023-03-29T05:04:56.014Z,93243.00
2023-03-29T05:05:56.030Z,93241.00
2023-03-29T05:06:56.039Z,93241.00
2023-03-29T05:07:56.086Z,93239.00
2023-03-29T05:08:56.077Z,93245.00
2023-03-29T05:09:56.084Z,93245.00
2023-03-29T05:10:56.345Z,93243.00
2023-03-29T05:11:56.113Z,93245.00
2023-03-29T05:12:56.155Z,93245.00
2023-03-29T05:13:56.152Z,93247.00
2023-03-29T05:14:56.171Z,93237.00
2023-03-29T05:15:56.172Z,93237.00
2023-03-29T05:16:56.183Z,93241.00
2023-03-29T05:17:56.256Z,93247.00
2023-03-29T05:18:56.194Z,93253.00
2023-03-29T05:19:56.272Z,93253.00
2023-03-29T05:20:56.229Z,93259.00
2023-03-29T05:21:56.237Z,93259.00
2023-03-29T05:22:56.254Z,93253.00
2023-03-29T05:23:56.265Z,93253.00
2023-03-29T05:24:56.268Z,93249.00
2023-03-29T05:25:56.292Z,93247.00
2023-03-29T05:26:56.322Z,93243.00
2023-03-29T05:27:56.306Z,93241.00
2023-03-29T05:28:56.319Z,93245.00
2023-03-29T05:29:56.349Z,93241.00
2023-03-29T05:30:56.328Z,93239.00
2023-03-29T05:31:56.394Z,93247.00
2023-03-29T05:32:56.362Z,93247.00
2023-03-29T05:33:56.342Z,93245.00
2023-03-29T05:34:56.366Z,93241.00
2023-03-29T05:35:56.394Z,93249.00
2023-03-29T05:36:56.361Z,93249.00
2023-03-29T05:37:56.417Z,93253.00
2023-03-29T05:38:56.362Z,93249.00
2023-03-29T05:40:06.107Z,93245.00
2023-03-29T05:40:57.361Z,93247.00
2023-03-29T05:41:56.360Z,93247.00
2023-03-29T05:42:56.362Z,93247.00
2023-03-29T05:43:56.369Z,93245.00
2023-03-29T05:44:56.376Z,93243.00
2023-03-29T05:45:56.482Z,93243.00
2023-03-29T05:46:56.367Z,93245.00
2023-03-29T05:47:56.417Z,93245.00
2023-03-29T05:48:56.357Z,93245.00
2023-03-29T05:49:56.354Z,93247.00
2023-03-29T05:50:56.367Z,93245.00
2023-03-29T05:51:56.387Z,93245.00
2023-03-29T05:52:56.402Z,93247.00
2023-03-29T05:53:56.446Z,93253.00
2023-03-29T05:54:56.581Z,93253.00
2023-03-29T05:55:56.544Z,93257.00
2023-03-29T05:56:56.555Z,93259.00
2023-03-29T05:57:56.576Z,93257.00
2023-03-29T05:58:56.597Z,93255.00
2023-03-29T05:59:56.629Z,93257.00
2023-03-29T06:00:56.703Z,93257.00
2023-03-29T06:01:56.740Z,93255.00
2023-03-29T06:03:06.499Z,93247.00
2023-03-29T06:03:57.787Z,93245.00
2023-03-29T06:04:56.842Z,93251.00
2023-03-29T06:05:56.670Z,93257.00
2023-03-29T06:06:56.642Z,93247.00
2023-03-29T06:07:56.757Z,93237.00
2023-03-29T06:08:56.622Z,93233.00
2023-03-29T06:09:56.617Z,93237.00
2023-03-29T06:10:56.601Z,93243.00
2023-03-29T06:11:57.284Z,93245.00
2023-03-29T06:12:56.588Z,93241.00
2023-03-29T06:13:57.582Z,93243.00
2023-03-29T06:14:56.561Z,93241.00
2023-03-29T06:15:56.559Z,93233.00
2023-03-29T06:16:56.607Z,93233.00
2023-03-29T06:17:57.570Z,93223.00
2023-03-29T06:18:56.522Z,93225.00
2023-03-29T06:19:56.508Z,93225.00
2023-03-29T06:20:56.501Z,93229.00
2023-03-29T06:21:56.490Z,93239.00
2023-03-29T06:22:56.468Z,93245.00
2023-03-29T06:23:56.461Z,93239.00
2023-03-29T06:24:56.452Z,93235.00
2023-03-29T06:25:56.459Z,93237.00
2023-03-29T06:26:56.462Z,93239.00
2023-03-29T06:27:56.465Z,93227.00
2023-03-29T06:28:56.474Z,93223.00
2023-03-29T06:29:56.471Z,93237.00
2023-03-29T06:30:56.693Z,93231.00
2023-03-29T06:31:56.478Z,93231.00
2023-03-29T06:32:56.493Z,93241.00
2023-03-29T06:33:56.493Z,93231.00
2023-03-29T06:34:56.480Z,93237.00
2023-03-29T06:35:57.416Z,93241.00
2023-03-29T06:36:56.550Z,93237.00
2023-03-29T06:37:56.721Z,93231.00
2023-03-29T06:38:56.681Z,93225.00
2023-03-29T06:39:56.734Z,93229.00
2023-03-29T06:40:56.793Z,93223.00
2023-03-29T06:41:56.831Z,93221.00
2023-03-29T06:42:56.885Z,93227.00
2023-03-29T06:43:56.883Z,93229.00
2023-03-29T06:44:56.921Z,93235.00
2023-03-29T06:45:56.973Z,93237.00
2023-03-29T06:46:56.984Z,93231.00
2023-03-29T06:47:57.001Z,93235.00
2023-03-29T06:48:57.011Z,93241.00
2023-03-29T06:49:57.023Z,93243.00
2023-03-29T06:50:57.043Z,93243.00
2023-03-29T06:51:57.055Z,93241.00
2023-03-29T06:52:57.062Z,93243.00
2023-03-29T06:53:57.068Z,93231.00
2023-03-29T06:54:57.061Z,93227.00
2023-03-29T06:55:57.077Z,93231.00
2023-03-29T06:56:57.085Z,93233.00
2023-03-29T06:57:57.068Z,93231.00
2023-03-29T06:58:57.079Z,93235.00
2023-03-29T06:59:57.072Z,93247.00
2023-03-29T07:00:57.072Z,93253.00
2023-03-29T07:01:57.211Z,93253.00
2023-03-29T07:02:57.184Z,93249.00
2023-03-29T07:03:57.098Z,93243.00
2023-03-29T07:04:57.064Z,93245.00
2023-03-29T07:05:57.879Z,93249.00
2023-03-29T07:06:57.079Z,93245.00
2023-03-29T07:07:57.201Z,93249.00
2023-03-29T07:08:57.882Z,93251.00
2023-03-29T07:09:57.152Z,93257.00
2023-03-29T07:10:57.154Z,93253.00
2023-03-29T07:11:57.192Z,93255.00
2023-03-29T07:12:57.232Z,93262.00
2023-03-29T07:13:57.268Z,93262.00
2023-03-29T07:14:57.295Z,93268.00
2023-03-29T07:15:57.314Z,93272.00
2023-03-29T07:16:57.510Z,93266.00
2023-03-29T07:17:57.437Z,93270.00
2023-03-29T07:18:57.348Z,93264.00
2023-03-29T07:19:57.343Z,93268.00
2023-03-29T07:20:57.408Z,93268.00
2023-03-29T07:21:57.349Z,93276.00
2023-03-29T07:22:57.349Z,93280.00
2023-03-29T07:23:57.365Z,93280.00
2023-03-29T07:24:57.372Z,93282.00
2023-03-29T07:25:57.388Z,93284.00
2023-03-29T07:27:04.077Z,93288.00
2023-03-29T07:27:58.446Z,93284.00
2023-03-29T07:28:57.400Z,93280.00
2023-03-29T07:29:57.462Z,93280.00
2023-03-29T07:30:57.401Z,93278.00
2023-03-29T07:31:57.397Z,93278.00
2023-03-29T07:32:57.503Z,93278.00
2023-03-29T07:33:57.495Z,93278.00
2023-03-29T07:34:57.465Z,93278.00
2023-03-29T07:35:57.443Z,93278.00
2023-03-29T07:36:57.894Z,93278.00
2023-03-29T07:37:57.374Z,93278.00
2023-03-29T07:38:57.376Z,93266.00
2023-03-29T07:39:57.375Z,93278.00
2023-03-29T07:40:57.375Z,93272.00
2023-03-29T07:41:57.380Z,93270.00
2023-03-29T07:42:57.442Z,93272.00
2023-03-29T07:43:57.461Z,93272.00
2023-03-29T07:44:57.514Z,93276.00
2023-03-29T07:45:57.598Z,93270.00
2023-03-29T07:46:57.627Z,93272.00
2023-03-29T07:47:57.825Z,93266.00
2023-03-29T07:48:57.744Z,93272.00
2023-03-29T07:49:57.792Z,93278.00
2023-03-29T07:50:57.858Z,93272.00
2023-03-29T07:51:57.923Z,93276.00
2023-03-29T07:52:57.976Z,93268.00
2023-03-29T07:53:58.053Z,93268.00
2023-03-29T07:54:58.114Z,93270.00
2023-03-29T07:55:58.197Z,93274.00
2023-03-29T07:56:58.392Z,93284.00
2023-03-29T07:57:58.309Z,93268.00
2023-03-29T07:58:58.454Z,93259.00
2023-03-29T07:59:58.452Z,93259.00
2023-03-29T08:00:58.561Z,93264.00
2023-03-29T08:01:58.585Z,93274.00
2023-03-29T08:02:58.693Z,93282.00
2023-03-29T08:03:58.853Z,93274.00
2023-03-29T08:04:58.899Z,93268.00
2023-03-29T08:05:58.872Z,93266.00
2023-03-29T08:06:58.952Z,93264.00
2023-03-29T08:07:59.024Z,93262.00
2023-03-29T08:08:59.081Z,93266.00
2023-03-29T08:09:59.146Z,93259.00
2023-03-29T08:10:59.228Z,93257.00
2023-03-29T08:11:59.273Z,93255.00
2023-03-29T08:12:59.350Z,93266.00
2023-03-29T08:13:59.430Z,93259.00
2023-03-29T08:14:59.492Z,93270.00
2023-03-29T08:15:59.575Z,93274.00
2023-03-29T08:16:59.651Z,93276.00
2023-03-29T08:17:59.938Z,93266.00
2023-03-29T08:18:59.777Z,93274.00
2023-03-29T08:19:59.840Z,93282.00
2023-03-29T08:21:00.011Z,93274.00
2023-03-29T08:21:59.995Z,93276.00
2023-03-29T08:23:00.040Z,93276.00
2023-03-29T08:24:00.132Z,93280.00
2023-03-29T08:25:00.172Z,93284.00
2023-03-29T08:26:00.182Z,93274.00
2023-03-29T08:27:00.218Z,93270.00
2023-03-29T08:28:00.284Z,93272.00
2023-03-29T08:29:00.341Z,93270.00
2023-03-29T08:30:00.394Z,93268.00
2023-03-29T08:31:00.680Z,93264.00
2023-03-29T08:32:00.520Z,93259.00
2023-03-29T08:33:00.594Z,93253.00
2023-03-29T08:34:00.584Z,93251.00
2023-03-29T08:35:00.598Z,93249.00
2023-03-29T08:36:00.649Z,93247.00
2023-03-29T08:37:00.711Z,93241.00
2023-03-29T08:38:00.639Z,93253.00
2023-03-29T08:39:00.647Z,93251.00
2023-03-29T08:40:00.700Z,93255.00
2023-03-29T08:41:00.913Z,93257.00
2023-03-29T08:42:00.753Z,93261.00
2023-03-29T08:43:00.742Z,93264.00
2023-03-29T08:44:00.753Z,93268.00
2023-03-29T08:45:01.833Z,93278.00
2023-03-29T08:46:00.855Z,93278.00
2023-03-29T08:47:00.839Z,93274.00
2023-03-29T08:48:00.855Z,93270.00
2023-03-29T08:49:00.826Z,93278.00
2023-03-29T08:50:00.846Z,93272.00
2023-03-29T08:51:01.032Z,93270.00
2023-03-29T08:52:01.835Z,93276.00
2023-03-29T08:53:00.898Z,93268.00
2023-03-29T08:54:00.905Z,93268.00
2023-03-29T08:55:00.935Z,93270.00
2023-03-29T08:56:00.944Z,93268.00
2023-03-29T08:57:00.989Z,93268.00
2023-03-29T08:58:00.997Z,93268.00
2023-03-29T08:59:00.962Z,93264.00
2023-03-29T09:00:01.209Z,93264.00
2023-03-29T09:01:01.360Z,93264.00
2023-03-29T09:02:01.066Z,93261.00
2023-03-29T09:03:01.092Z,93262.00
2023-03-29T09:04:01.064Z,93259.00
2023-03-29T09:05:01.921Z,93261.00
2023-03-29T09:06:00.988Z,93255.00
2023-03-29T09:07:00.993Z,93255.00
2023-03-29T09:08:01.000Z,93264.00
2023-03-29T09:09:00.991Z,93272.00
2023-03-29T09:10:00.986Z,93270.00
2023-03-29T09:11:01.149Z,93276.00
2023-03-29T09:12:01.002Z,93264.00
2023-03-29T09:13:01.032Z,93266.00
2023-03-29T09:14:01.046Z,93261.00
2023-03-29T09:15:01.206Z,93257.00
2023-03-29T09:16:01.050Z,93259.00
2023-03-29T09:17:01.015Z,93257.00
2023-03-29T09:18:01.469Z,93259.00
2023-03-29T09:19:01.029Z,93257.00
2023-03-29T09:20:01.037Z,93261.00
2023-03-29T09:21:01.343Z,93270.00
2023-03-29T09:22:01.046Z,93266.00
2023-03-29T09:23:01.055Z,93272.00
2023-03-29T09:24:01.063Z,93266.00
2023-03-29T09:25:01.098Z,93264.00
2023-03-29T09:26:01.100Z,93264.00
2023-03-29T09:27:01.101Z,93266.00
2023-03-29T09:28:01.125Z,93270.00
2023-03-29T09:29:01.128Z,93270.00
2023-03-29T09:30:01.175Z,93280.00
2023-03-29T09:31:01.265Z,93284.00
2023-03-29T09:32:01.190Z,93280.00
2023-03-29T09:33:01.179Z,93280.00
2023-03-29T09:34:01.135Z,93282.00
2023-03-29T09:35:01.209Z,93282.00
2023-03-29T09:36:01.905Z,93280.00
2023-03-29T09:37:01.167Z,93280.00
2023-03-29T09:38:01.196Z,93270.00
2023-03-29T09:39:01.198Z,93268.00
2023-03-29T09:40:02.070Z,93270.00
2023-03-29T09:41:01.653Z,93268.00
2023-03-29T09:42:01.401Z,93270.00
2023-03-29T09:43:01.442Z,93272.00
2023-03-29T09:44:01.478Z,93272.00
2023-03-29T09:45:01.432Z,93280.00
2023-03-29T09:46:01.531Z,93282.00
2023-03-29T09:47:01.445Z,93280.00
2023-03-29T09:48:01.493Z,93278.00
2023-03-29T09:49:01.514Z,93278.00
2023-03-29T09:50:01.539Z,93276.00
2023-03-29T09:51:01.615Z,93282.00
2023-03-29T09:52:01.527Z,93292.00
2023-03-29T09:53:01.550Z,93290.00
2023-03-29T09:54:01.529Z,93286.00
2023-03-29T09:55:01.524Z,93284.00
2023-03-29T09:56:01.554Z,93282.00
2023-03-29T09:57:01.634Z,93286.00
2023-03-29T09:58:01.583Z,93288.00
2023-03-29T09:59:01.569Z,93286.00
2023-03-29T10:00:02.443Z,93294.00
2023-03-29T10:01:01.802Z,93292.00
2023-03-29T10:02:01.594Z,93294.00
2023-03-29T10:03:01.637Z,93296.00
2023-03-29T10:04:01.641Z,93296.00
2023-03-29T10:05:01.717Z,93302.00
2023-03-29T10:06:01.659Z,93306.00
2023-03-29T10:07:01.648Z,93306.00
2023-03-29T10:08:01.651Z,93302.00
2023-03-29T10:09:01.660Z,93298.00
2023-03-29T10:10:01.667Z,93298.00
2023-03-29T10:11:01.900Z,93300.00
2023-03-29T10:12:01.690Z,93300.00
2023-03-29T10:13:01.699Z,93292.00
2023-03-29T10:14:01.701Z,93292.00
2023-03-29T10:15:01.778Z,93298.00
2023-03-29T10:16:01.795Z,93306.00
2023-03-29T10:17:01.816Z,93302.00
2023-03-29T10:18:01.810Z,93296.00
2023-03-29T10:19:01.769Z,93296.00
2023-03-29T10:20:03.970Z,93292.00
2023-03-29T10:21:02.210Z,93292.00
2023-03-29T10:22:02.000Z,93294.00
2023-03-29T10:23:02.023Z,93290.00
2023-03-29T10:24:02.070Z,93294.00
2023-03-29T10:25:02.053Z,93294.00
2023-03-29T10:26:03.006Z,93296.00
2023-03-29T10:27:02.088Z,93292.00
2023-03-29T10:28:02.092Z,93290.00
2023-03-29T10:29:02.110Z,93292.00
2023-03-29T10:30:02.119Z,93280.00
2023-03-29T10:31:02.406Z,93284.00
2023-03-29T10:32:02.241Z,93284.00
2023-03-29T10:33:02.190Z,93284.00
2023-03-29T10:34:02.162Z,93274.00
2023-03-29T10:35:02.177Z,93270.00
2023-03-29T10:36:02.201Z,93272.00
2023-03-29T10:37:02.203Z,93268.00
2023-03-29T10:38:02.200Z,93268.00
2023-03-29T10:39:04.302Z,93264.00
2023-03-29T10:40:02.220Z,93264.00
2023-03-29T10:41:02.372Z,93268.00
2023-03-29T10:42:02.297Z,93262.00
2023-03-29T10:43:02.202Z,93261.00
2023-03-29T10:44:02.209Z,93255.00
2023-03-29T10:45:02.209Z,93257.00
2023-03-29T10:46:02.226Z,93255.00
2023-03-29T10:47:02.217Z,93257.00
2023-03-29T10:48:02.288Z,93257.00
2023-03-29T10:49:02.218Z,93253.00
2023-03-29T10:50:02.226Z,93261.00
2023-03-29T10:51:02.432Z,93266.00
2023-03-29T10:52:02.226Z,93264.00
2023-03-29T10:53:02.219Z,93257.00
2023-03-29T10:54:02.222Z,93253.00
2023-03-29T10:55:02.226Z,93255.00
2023-03-29T10:56:02.226Z,93262.00
2023-03-29T10:57:02.252Z,93264.00
2023-03-29T10:58:02.237Z,93261.00
2023-03-29T10:59:02.232Z,93261.00
2023-03-29T11:00:02.233Z,93257.00
2023-03-29T11:01:02.419Z,93261.00
2023-03-29T11:02:02.404Z,93257.00
2023-03-29T11:03:02.345Z,93255.00
2023-03-29T11:04:02.434Z,93255.00
2023-03-29T11:05:02.273Z,93262.00
2023-03-29T11:06:02.259Z,93268.00
2023-03-29T11:07:02.283Z,93262.00
2023-03-29T11:08:02.268Z,93262.00
2023-03-29T11:09:02.344Z,93259.00
2023-03-29T11:10:02.341Z,93261.00
2023-03-29T11:11:02.562Z,93262.00
2023-03-29T11:12:15.151Z,93264.00
2023-03-29T11:13:03.307Z,93262.00
2023-03-29T11:14:02.308Z,93259.00
2023-03-29T11:15:02.313Z,93257.00
2023-03-29T11:16:02.328Z,93259.00
2023-03-29T11:17:02.317Z,93261.00
2023-03-29T11:18:02.339Z,93251.00
2023-03-29T11:19:02.324Z,93247.00
2023-03-29T11:20:04.919Z,93249.00
2023-03-29T11:21:02.395Z,93249.00
2023-03-29T11:22:02.335Z,93253.00
2023-03-29T11:23:02.325Z,93253.00
2023-03-29T11:24:02.319Z,93251.00
2023-03-29T11:25:02.337Z,93251.00
2023-03-29T11:26:02.329Z,93253.00
2023-03-29T11:27:02.338Z,93257.00
2023-03-29T11:28:02.341Z,93255.00
2023-03-29T11:29:02.357Z,93257.00
2023-03-29T11:30:02.423Z,93262.00
2023-03-29T11:31:02.736Z,93257.00
2023-03-29T11:32:02.398Z,93259.00
2023-03-29T11:33:02.379Z,93262.00
2023-03-29T11:34:02.366Z,93261.00
2023-03-29T11:35:02.395Z,93259.00
2023-03-29T11:36:02.458Z,93259.00
2023-03-29T11:37:02.384Z,93259.00
2023-03-29T11:38:02.378Z,93262.00
2023-03-29T11:39:02.384Z,93264.00
2023-03-29T11:40:02.387Z,93262.00
2023-03-29T11:41:02.768Z,93262.00
2023-03-29T11:42:02.416Z,93257.00
2023-03-29T11:43:02.422Z,93261.00
2023-03-29T11:44:02.409Z,93264.00
2023-03-29T11:45:02.420Z,93264.00